Time;durP1;ratioP1;P1;durP2;ratioP2;P2;SDS_P1;SDS_P2;PMS_P1;PMS_P2;Temp;Humidity;BMP_temperature;BMP_pressure;BME280_temperature;BME280_humidity;BME280_pressure;Samples;Min_cycle;Max_cycle;Signal;HPM_P1;HPM_P2
2022/07/15 00:02:21;;;;;;;2.42;0.60;;;14.80;99.90;;;;;;5029561;28;20037;-69
2022/07/15 00:04:47;;;;;;;10.65;0.77;;;14.80;99.90;;;;;;5030720;28;20095;-69
2022/07/15 00:07:13;;;;;;;5.43;1.83;;;14.70;99.90;;;;;;5029849;28;20103;-68
2022/07/15 00:12:23;;;;;;;3.20;0.90;;;14.60;99.90;;;;;;5025764;28;20041;-70
2022/07/15 00:14:49;;;;;;;5.18;0.93;;;14.60;99.90;;;;;;5029695;28;20128;-70
2022/07/15 00:17:15;;;;;;;2.75;0.82;;;14.60;99.90;;;;;;5029431;28;20168;-67
2022/07/15 00:19:40;;;;;;;4.38;0.90;;;14.60;99.90;;;;;;5028519;28;20053;-69
2022/07/15 00:22:06;;;;;;;6.28;0.88;;;14.50;99.90;;;;;;5028157;28;20107;-69
2022/07/15 00:24:32;;;;;;;4.47;0.90;;;14.50;99.90;;;;;;5029385;28;20033;-68
2022/07/15 00:26:57;;;;;;;9.57;1.48;;;14.40;99.90;;;;;;5031968;28;20032;-69
2022/07/15 00:29:23;;;;;;;7.38;1.30;;;14.40;99.90;;;;;;5029327;28;20606;-69
2022/07/15 00:31:49;;;;;;;4.75;1.02;;;14.40;99.90;;;;;;5029739;28;20041;-67
2022/07/15 00:34:16;;;;;;;3.30;1.05;;;14.40;99.90;;;;;;5028565;28;20034;-67
2022/07/15 00:36:42;;;;;;;5.60;1.20;;;14.40;99.90;;;;;;5029806;28;20043;-68
2022/07/15 00:39:09;;;;;;;2.95;0.77;;;14.30;99.90;;;;;;5028077;28;20029;-69
2022/07/15 00:41:38;;;;;;;3.47;0.77;;;14.30;99.90;;;;;;5027473;28;20040;-69
2022/07/15 00:44:04;;;;;;;2.83;0.90;;;14.30;99.90;;;;;;5029308;28;20033;-66
2022/07/15 00:46:30;;;;;;;5.38;1.20;;;14.30;99.90;;;;;;5025347;28;20028;-68
2022/07/15 00:48:59;;;;;;;5.80;1.20;;;14.20;99.90;;;;;;5026439;28;20481;-69
2022/07/15 00:51:25;;;;;;;2.58;0.90;;;14.20;99.90;;;;;;5027451;28;20029;-69
2022/07/15 00:53:53;;;;;;;7.18;1.13;;;14.20;99.90;;;;;;5026140;28;20475;-69
2022/07/15 00:56:22;;;;;;;7.78;0.93;;;14.20;99.90;;;;;;5031595;28;20025;-69
2022/07/15 00:58:51;;;;;;;8.13;1.13;;;14.20;99.90;;;;;;5025341;28;20030;-69
2022/07/15 01:01:20;;;;;;;4.32;0.90;;;14.10;99.90;;;;;;5028455;28;20029;-66
2022/07/15 01:03:48;;;;;;;3.15;0.90;;;14.10;99.90;;;;;;5029203;28;20033;-67
2022/07/15 01:06:13;;;;;;;5.40;1.02;;;14.10;99.90;;;;;;5028044;28;20379;-67
2022/07/15 01:08:39;;;;;;;4.63;0.57;;;14.00;99.90;;;;;;5029422;28;20115;-68
2022/07/15 01:11:05;;;;;;;5.72;1.08;;;14.00;99.90;;;;;;5027805;28;20043;-70
2022/07/15 01:13:31;;;;;;;7.57;1.45;;;13.90;99.90;;;;;;5025511;28;20116;-69
2022/07/15 01:15:56;;;;;;;8.25;0.90;;;13.90;99.90;;;;;;5029423;28;20026;-70
2022/07/15 01:18:22;;;;;;;6.15;0.88;;;13.90;99.90;;;;;;5028581;28;20042;-69
2022/07/15 01:20:48;;;;;;;3.03;0.60;;;13.90;99.90;;;;;;5027450;28;20048;-66
2022/07/15 01:23:15;;;;;;;6.15;0.70;;;13.80;99.90;;;;;;5025915;28;20090;-67
2022/07/15 01:25:41;;;;;;;5.82;1.30;;;13.80;99.90;;;;;;5029101;28;20033;-68
2022/07/15 01:28:08;;;;;;;5.18;0.68;;;13.80;99.90;;;;;;5028353;28;20057;-69
2022/07/15 01:30:34;;;;;;;4.70;0.93;;;13.80;99.90;;;;;;5028565;28;20108;-66
2022/07/15 01:33:00;;;;;;;2.92;0.60;;;13.80;99.90;;;;;;5027435;28;20049;-69
2022/07/15 01:35:26;;;;;;;2.47;0.93;;;13.80;99.90;;;;;;5028237;28;20037;-69
2022/07/15 01:37:51;;;;;;;3.17;1.00;;;13.70;99.90;;;;;;5027614;28;20033;-68
2022/07/15 01:40:17;;;;;;;2.17;0.52;;;13.70;99.90;;;;;;5026838;28;20448;-66
2022/07/15 01:42:43;;;;;;;4.75;0.73;;;13.80;99.90;;;;;;5028439;28;20304;-69
2022/07/15 01:45:10;;;;;;;6.47;0.90;;;13.70;99.90;;;;;;5028584;28;20038;-69
2022/07/15 01:47:43;;;;;;;4.10;0.90;;;13.70;99.90;;;;;;5029275;28;20029;-69
2022/07/15 01:50:08;;;;;;;5.47;0.70;;;13.70;99.90;;;;;;5028330;28;20029;-69
2022/07/15 01:52:34;;;;;;;6.22;0.82;;;13.70;99.90;;;;;;5031635;28;20033;-65
2022/07/15 01:54:59;;;;;;;6.85;0.80;;;13.70;99.90;;;;;;5028976;28;20053;-69
2022/07/15 01:57:25;;;;;;;4.10;0.70;;;13.70;99.90;;;;;;5028088;28;20064;-69
2022/07/15 01:59:51;;;;;;;3.33;0.60;;;13.70;99.90;;;;;;5028661;28;20033;-66
2022/07/15 02:02:16;;;;;;;6.45;0.70;;;13.70;99.90;;;;;;5028063;28;20029;-69
2022/07/15 02:04:42;;;;;;;5.47;0.90;;;13.80;99.90;;;;;;5027947;28;20033;-70
2022/07/15 02:07:08;;;;;;;4.07;0.40;;;13.80;99.90;;;;;;5028325;28;20084;-69
2022/07/15 02:09:34;;;;;;;5.57;0.70;;;13.80;99.90;;;;;;5027597;28;20049;-68
2022/07/15 02:11:59;;;;;;;9.77;1.42;;;13.70;99.90;;;;;;5028408;28;20037;-70
2022/07/15 02:14:25;;;;;;;3.50;0.70;;;13.70;99.90;;;;;;5027137;28;20034;-68
2022/07/15 02:16:51;;;;;;;4.47;1.08;;;13.80;99.90;;;;;;5028681;28;20128;-66
2022/07/15 02:19:16;;;;;;;6.07;0.80;;;13.80;99.90;;;;;;5027970;28;20049;-70
2022/07/15 02:21:42;;;;;;;2.58;0.60;;;13.80;99.90;;;;;;5028394;28;20029;-69
2022/07/15 02:24:07;;;;;;;3.78;0.70;;;13.70;99.90;;;;;;5026177;28;20029;-68
2022/07/15 02:26:33;;;;;;;7.70;1.02;;;13.70;99.90;;;;;;5029360;28;20034;-67
2022/07/15 02:29:00;;;;;;;1.58;0.57;;;13.70;99.90;;;;;;5028187;28;20401;-69
2022/07/15 02:31:25;;;;;;;6.82;1.13;;;13.60;99.90;;;;;;5027517;28;20049;-69
2022/07/15 02:33:51;;;;;;;4.03;0.47;;;13.60;99.90;;;;;;5030611;28;20061;-69
2022/07/15 02:36:16;;;;;;;5.88;0.50;;;13.60;99.90;;;;;;5027507;28;20452;-68
2022/07/15 02:38:42;;;;;;;4.13;1.17;;;13.60;99.90;;;;;;5030549;28;20505;-69
2022/07/15 02:41:09;;;;;;;3.67;0.50;;;13.50;99.90;;;;;;5030164;28;20025;-68
2022/07/15 02:43:36;;;;;;;5.07;0.60;;;13.50;99.90;;;;;;5029756;28;20095;-67
2022/07/15 02:46:02;;;;;;;4.38;0.68;;;13.50;99.90;;;;;;5030958;28;20057;-69
2022/07/15 02:48:27;;;;;;;6.65;1.00;;;13.50;99.90;;;;;;5030649;28;20026;-68
2022/07/15 02:50:53;;;;;;;8.18;0.98;;;13.40;99.90;;;;;;5031792;28;20045;-66
2022/07/15 02:53:20;;;;;;;2.33;0.70;;;13.40;99.90;;;;;;5030513;28;20116;-67
2022/07/15 02:55:47;;;;;;;5.10;0.63;;;13.40;99.90;;;;;;5034867;28;20410;-69
2022/07/15 02:58:12;;;;;;;4.07;0.70;;;13.30;99.90;;;;;;5029319;28;20413;-68
2022/07/15 03:00:38;;;;;;;2.80;0.75;;;13.30;99.90;;;;;;5031533;28;20029;-66
2022/07/15 03:03:04;;;;;;;5.07;0.70;;;13.30;99.90;;;;;;5031037;28;20053;-69
2022/07/15 03:05:30;;;;;;;5.10;1.05;;;13.30;99.90;;;;;;5029319;28;20030;-69
2022/07/15 03:07:55;;;;;;;7.47;0.60;;;13.30;99.90;;;;;;5031219;28;20033;-69
2022/07/15 03:10:21;;;;;;;4.43;0.77;;;13.20;99.90;;;;;;5030830;28;20541;-66
2022/07/15 03:12:46;;;;;;;7.32;1.30;;;13.20;99.90;;;;;;5031278;28;20037;-68
2022/07/15 03:15:12;;;;;;;6.50;1.30;;;13.20;99.90;;;;;;5031115;28;20379;-69
2022/07/15 03:17:39;;;;;;;2.30;0.65;;;13.20;99.90;;;;;;5029293;28;20549;-69
2022/07/15 03:20:06;;;;;;;10.27;0.90;;;13.10;99.90;;;;;;5031189;28;20545;-65
2022/07/15 03:22:32;;;;;;;5.10;1.05;;;13.10;99.90;;;;;;5029164;28;20598;-70
2022/07/15 03:24:58;;;;;;;3.85;0.98;;;13.10;99.90;;;;;;5031888;28;20136;-70
2022/07/15 03:27:24;;;;;;;9.25;0.90;;;13.10;99.90;;;;;;5028893;28;20108;-69
2022/07/15 03:29:49;;;;;;;5.63;0.95;;;13.10;99.90;;;;;;5029738;28;20116;-69
2022/07/15 03:32:19;;;;;;;3.00;0.93;;;13.10;99.90;;;;;;5028650;28;20091;-68
2022/07/15 03:34:44;;;;;;;4.57;0.85;;;13.10;99.90;;;;;;5029694;28;20036;-69
2022/07/15 03:37:11;;;;;;;7.18;1.30;;;13.00;99.90;;;;;;5030374;28;20030;-67
2022/07/15 03:39:36;;;;;;;6.47;1.25;;;13.00;99.90;;;;;;5030501;28;20030;-65
2022/07/15 03:42:02;;;;;;;9.60;0.73;;;13.00;99.90;;;;;;5031092;28;20410;-70
2022/07/15 03:44:28;;;;;;;8.07;1.20;;;13.00;99.90;;;;;;5029309;28;20393;-69
2022/07/15 03:46:53;;;;;;;6.45;1.10;;;13.00;99.90;;;;;;5030493;28;20041;-69
2022/07/15 03:49:19;;;;;;;1.83;0.93;;;13.10;99.90;;;;;;5030102;28;20079;-69
2022/07/15 03:51:45;;;;;;;2.30;0.70;;;13.00;99.90;;;;;;5030017;28;20480;-68
2022/07/15 03:54:10;;;;;;;2.55;0.90;;;13.10;99.90;;;;;;5029450;28;20485;-70
2022/07/15 03:56:36;;;;;;;4.88;0.95;;;13.10;99.90;;;;;;5031063;28;20516;-66
2022/07/15 03:59:02;;;;;;;7.93;2.00;;;13.10;99.90;;;;;;5028162;28;20045;-69
2022/07/15 04:01:28;;;;;;;6.90;0.95;;;13.10;99.90;;;;;;5028726;28;20053;-66
2022/07/15 04:03:53;;;;;;;2.28;0.68;;;13.10;99.90;;;;;;5028716;28;20498;-68
2022/07/15 04:06:20;;;;;;;5.00;0.63;;;13.10;99.90;;;;;;5029283;28;20037;-69
2022/07/15 04:08:46;;;;;;;2.35;0.75;;;13.10;99.90;;;;;;5029017;28;20056;-69
2022/07/15 04:11:13;;;;;;;4.78;0.82;;;13.10;99.90;;;;;;5029757;28;20504;-65
2022/07/15 04:13:39;;;;;;;6.47;1.00;;;13.10;99.90;;;;;;5029204;28;20040;-67
2022/07/15 04:16:07;;;;;;;2.35;1.00;;;13.10;99.90;;;;;;5030265;28;20033;-69
2022/07/15 04:18:32;;;;;;;9.50;1.50;;;13.10;99.90;;;;;;5029380;28;20060;-69
2022/07/15 04:20:59;;;;;;;2.28;0.60;;;13.10;99.90;;;;;;5030058;28;20072;-65
2022/07/15 04:23:25;;;;;;;6.40;0.82;;;13.10;99.90;;;;;;5028202;28;20041;-69
2022/07/15 04:25:52;;;;;;;5.88;0.80;;;13.20;99.90;;;;;;5030225;28;20037;-69
2022/07/15 04:28:18;;;;;;;5.60;0.98;;;13.10;99.90;;;;;;5028869;28;20087;-68
2022/07/15 04:30:43;;;;;;;4.53;0.93;;;13.20;99.90;;;;;;5029615;28;20120;-67
2022/07/15 04:33:09;;;;;;;3.65;1.15;;;13.20;99.90;;;;;;5029642;28;20588;-68
2022/07/15 04:35:35;;;;;;;3.55;0.50;;;13.20;99.90;;;;;;5028534;28;20527;-70
2022/07/15 04:38:00;;;;;;;3.00;0.95;;;13.20;99.90;;;;;;5028775;28;20026;-69
2022/07/15 04:40:26;;;;;;;4.30;0.70;;;13.20;99.90;;;;;;5027666;28;20148;-69
2022/07/15 04:42:51;;;;;;;3.00;0.60;;;13.30;99.90;;;;;;5027636;28;20045;-69
2022/07/15 04:45:17;;;;;;;2.60;0.50;;;13.30;99.90;;;;;;5027193;28;20509;-68
2022/07/15 04:47:42;;;;;;;3.05;0.95;;;13.30;99.90;;;;;;5029191;28;20044;-67
2022/07/15 04:52:53;;;;;;;4.90;0.45;;;13.40;99.90;;;;;;5027660;28;20536;-66
2022/07/15 04:55:18;;;;;;;2.70;0.68;;;13.40;99.90;;;;;;5029528;28;20037;-70
2022/07/15 04:57:44;;;;;;;3.85;0.40;;;13.40;99.90;;;;;;5028237;28;20520;-68
2022/07/15 05:00:10;;;;;;;2.72;0.65;;;13.50;99.90;;;;;;5028301;28;20029;-67
2022/07/15 05:02:36;;;;;;;3.72;0.63;;;13.50;99.90;;;;;;5028636;28;20389;-69
2022/07/15 05:05:02;;;;;;;3.72;0.77;;;13.50;99.90;;;;;;5029380;28;20547;-69
2022/07/15 05:07:28;;;;;;;2.92;0.90;;;13.50;99.90;;;;;;5027824;28;20061;-69
2022/07/15 05:09:53;;;;;;;3.13;0.50;;;13.60;99.90;;;;;;5027918;28;20045;-67
2022/07/15 05:12:19;;;;;;;4.68;0.52;;;13.60;99.90;;;;;;5028232;28;20478;-69
2022/07/15 05:14:45;;;;;;;9.65;0.55;;;13.60;99.90;;;;;;5029037;28;20049;-66
2022/07/15 05:17:11;;;;;;;4.85;1.13;;;13.60;99.90;;;;;;5028828;28;20033;-68
2022/07/15 05:19:36;;;;;;;5.28;0.52;;;13.70;99.90;;;;;;5028655;28;20063;-68
2022/07/15 05:22:03;;;;;;;1.10;0.68;;;13.70;99.90;;;;;;5024590;28;20136;-69
2022/07/15 05:24:28;;;;;;;4.25;0.50;;;13.70;99.90;;;;;;5027823;28;20026;-69
2022/07/15 05:26:54;;;;;;;2.20;0.20;;;13.80;99.90;;;;;;5033090;28;20087;-68
2022/07/15 05:29:22;;;;;;;2.30;0.25;;;13.80;99.90;;;;;;5028134;28;20079;-69
2022/07/15 05:31:48;;;;;;;3.10;0.38;;;13.90;99.90;;;;;;5028901;28;20116;-69
2022/07/15 05:34:15;;;;;;;2.80;0.50;;;13.90;99.90;;;;;;5028309;28;20033;-67
2022/07/15 05:36:40;;;;;;;7.78;0.70;;;14.00;99.90;;;;;;5027594;28;20026;-67
2022/07/15 05:39:06;;;;;;;2.10;0.40;;;14.10;99.90;;;;;;5028648;28;20042;-69
2022/07/15 05:41:32;;;;;;;1.23;0.30;;;14.20;99.90;;;;;;5028102;28;20029;-68
2022/07/15 05:43:58;;;;;;;2.85;0.30;;;14.30;99.90;;;;;;5028724;28;20416;-69
2022/07/15 05:46:24;;;;;;;4.13;0.55;;;14.40;99.90;;;;;;5028034;28;20037;-67
2022/07/15 05:48:49;;;;;;;3.58;0.30;;;14.50;99.90;;;;;;5028683;28;20045;-68
2022/07/15 05:51:15;;;;;;;3.05;0.60;;;14.70;99.90;;;;;;5026109;28;20033;-67
2022/07/15 05:53:41;;;;;;;4.88;0.30;;;15.10;99.90;;;;;;5028603;28;20034;-69
2022/07/15 05:56:07;;;;;;;8.23;0.47;;;15.50;99.90;;;;;;5030175;28;20083;-69
2022/07/15 05:58:32;;;;;;;2.30;0.20;;;16.00;99.90;;;;;;5027754;28;20034;-68
2022/07/15 06:00:58;;;;;;;4.75;0.50;;;16.50;99.90;;;;;;5028819;28;20029;-69
2022/07/15 06:03:23;;;;;;;4.10;0.45;;;17.00;99.90;;;;;;5025883;28;20037;-68
2022/07/15 06:05:49;;;;;;;2.88;0.40;;;17.20;99.90;;;;;;5027361;28;20487;-69
2022/07/15 06:08:14;;;;;;;2.85;0.15;;;17.40;99.90;;;;;;5030619;28;20190;-69
2022/07/15 06:10:41;;;;;;;3.47;0.45;;;17.60;99.90;;;;;;5032253;28;20088;-69
2022/07/15 06:13:07;;;;;;;5.47;0.38;;;17.70;99.90;;;;;;5030553;28;20385;-69
2022/07/15 06:15:33;;;;;;;4.43;1.45;;;18.00;99.90;;;;;;5031349;28;20030;-70
2022/07/15 06:17:58;;;;;;;1.60;0.50;;;18.10;99.90;;;;;;5031480;28;20026;-69
2022/07/15 06:20:24;;;;;;;2.15;0.20;;;18.20;99.90;;;;;;5031080;28;20184;-66
2022/07/15 06:22:50;;;;;;;2.22;0.52;;;18.20;99.90;;;;;;5031249;28;20154;-70
2022/07/15 06:25:15;;;;;;;4.72;0.30;;;18.20;99.90;;;;;;5033523;28;20025;-70
2022/07/15 06:27:41;;;;;;;2.50;0.25;;;18.20;99.90;;;;;;5031659;28;20102;-69
2022/07/15 06:30:08;;;;;;;1.30;0.20;;;18.10;99.90;;;;;;5030708;28;20041;-68
2022/07/15 06:32:35;;;;;;;5.63;0.30;;;18.10;99.90;;;;;;5028735;28;20107;-70
2022/07/15 06:35:01;;;;;;;4.28;0.30;;;18.20;99.90;;;;;;5031692;28;20475;-70
2022/07/15 06:37:27;;;;;;;3.97;0.25;;;18.30;99.90;;;;;;5030488;28;20037;-70
2022/07/15 06:39:54;;;;;;;2.72;0.47;;;18.40;99.90;;;;;;5031640;28;20034;-69
2022/07/15 06:42:20;;;;;;;5.07;0.38;;;18.50;99.90;;;;;;5030288;28;20076;-68
2022/07/15 06:44:46;;;;;;;3.70;0.57;;;18.60;99.90;;;;;;5031099;28;20397;-70
2022/07/15 06:47:12;;;;;;;2.47;0.30;;;18.70;99.90;;;;;;5030427;28;20026;-69
2022/07/15 06:49:38;;;;;;;2.67;0.40;;;18.80;99.90;;;;;;5031289;28;20127;-70
2022/07/15 06:52:05;;;;;;;4.95;0.88;;;19.00;99.90;;;;;;5030088;28;20045;-68
2022/07/15 06:54:31;;;;;;;4.47;0.28;;;19.20;99.90;;;;;;5030581;28;20038;-69
2022/07/15 06:56:57;;;;;;;8.85;0.98;;;19.50;99.90;;;;;;5031877;28;20079;-69
2022/07/15 06:59:23;;;;;;;0.82;0.40;;;19.70;99.90;;;;;;5030589;28;20030;-69
2022/07/15 07:01:49;;;;;;;4.68;0.50;;;20.00;99.90;;;;;;5031486;28;20083;-67
2022/07/15 07:04:15;;;;;;;7.07;0.85;;;20.20;99.90;;;;;;5024305;28;20481;-68
2022/07/15 07:06:40;;;;;;;2.60;0.47;;;20.40;99.90;;;;;;5029888;28;20045;-69
2022/07/15 07:09:06;;;;;;;4.07;0.93;;;20.50;99.90;;;;;;5028850;28;20029;-69
2022/07/15 07:11:32;;;;;;;2.08;0.50;;;20.90;99.90;;;;;;5029011;28;20099;-68
2022/07/15 07:13:59;;;;;;;4.80;0.95;;;21.30;99.90;;;;;;5029789;28;20030;-69
2022/07/15 07:16:25;;;;;;;2.65;0.40;;;21.90;99.90;;;;;;5029241;28;20025;-68
2022/07/15 07:18:51;;;;;;;2.83;0.60;;;22.50;99.80;;;;;;5027362;28;20034;-68
2022/07/15 07:21:17;;;;;;;3.72;0.60;;;23.20;99.70;;;;;;5027973;28;20521;-69
2022/07/15 07:23:43;;;;;;;1.58;0.52;;;23.60;97.30;;;;;;5026782;28;20033;-70
2022/07/15 07:26:10;;;;;;;3.03;0.45;;;23.60;97.30;;;;;;5028795;28;20080;-71
2022/07/15 07:28:39;;;;;;;2.75;0.15;;;23.90;96.40;;;;;;5026970;28;20060;-69
2022/07/15 07:31:06;;;;;;;1.97;0.50;;;24.10;96.00;;;;;;5026627;28;20048;-69
2022/07/15 07:33:32;;;;;;;0.93;0.40;;;24.20;95.20;;;;;;5027250;28;20029;-70
2022/07/15 07:35:57;;;;;;;2.38;0.63;;;23.90;93.60;;;;;;5028144;28;20045;-67
2022/07/15 07:38:23;;;;;;;6.03;1.15;;;23.40;94.30;;;;;;5026925;28;20061;-70
2022/07/15 07:40:49;;;;;;;5.70;0.75;;;23.20;95.20;;;;;;5027852;28;20083;-66
2022/07/15 07:43:17;;;;;;;1.80;0.32;;;23.50;94.00;;;;;;5026878;28;20095;-69
2022/07/15 07:45:42;;;;;;;1.80;0.35;;;24.30;93.50;;;;;;5028513;28;20034;-70
2022/07/15 07:48:08;;;;;;;1.67;0.40;;;25.00;91.90;;;;;;5027705;28;20071;-67
2022/07/15 07:50:33;;;;;;;3.47;0.45;;;25.10;91.20;;;;;;5027590;28;20049;-67
2022/07/15 07:52:59;;;;;;;5.82;0.63;;;25.50;90.70;;;;;;5028100;28;20052;-70
2022/07/15 07:55:25;;;;;;;3.30;0.47;;;26.10;91.10;;;;;;5027769;28;20065;-69
2022/07/15 07:57:56;;;;;;;2.80;0.70;;;26.80;88.80;;;;;;5027308;28;20107;-69
2022/07/15 08:00:23;;;;;;;3.50;0.60;;;27.70;86.50;;;;;;5026991;28;20038;-67
2022/07/15 08:02:49;;;;;;;5.82;0.93;;;28.40;83.90;;;;;;5027756;28;20037;-70
2022/07/15 08:05:15;;;;;;;4.47;0.70;;;28.70;81.10;;;;;;5026588;28;20033;-68
2022/07/15 08:07:41;;;;;;;1.50;0.60;;;28.60;79.40;;;;;;5026199;28;20037;-71
2022/07/15 08:10:09;;;;;;;2.60;0.57;;;28.30;80.00;;;;;;5026024;28;20215;-70
2022/07/15 08:12:37;;;;;;;2.35;0.43;;;28.10;80.30;;;;;;5026623;28;20049;-69
2022/07/15 08:15:05;;;;;;;2.42;0.73;;;27.90;78.20;;;;;;5030732;28;20050;-69
2022/07/15 08:17:30;;;;;;;3.65;0.60;;;27.20;77.80;;;;;;5026421;28;20033;-70
2022/07/15 08:19:56;;;;;;;1.10;0.20;;;26.30;78.70;;;;;;5026194;28;20391;-69
2022/07/15 08:22:22;;;;;;;1.17;0.30;;;25.70;78.60;;;;;;5025217;28;20512;-68
2022/07/15 08:24:49;;;;;;;3.85;0.22;;;25.30;77.50;;;;;;5026599;28;20029;-69
2022/07/15 08:27:15;;;;;;;0.90;0.30;;;24.70;77.00;;;;;;5026434;28;20021;-68
2022/07/15 08:29:41;;;;;;;0.45;0.10;;;24.50;80.80;;;;;;5026532;28;20021;-69
2022/07/15 08:32:06;;;;;;;2.15;0.30;;;24.30;82.30;;;;;;5024492;28;20030;-69
2022/07/15 08:34:32;;;;;;;1.25;0.20;;;24.00;82.20;;;;;;5024114;28;20029;-69
2022/07/15 08:36:58;;;;;;;4.15;0.32;;;24.00;82.70;;;;;;5027524;28;20036;-69
2022/07/15 08:39:23;;;;;;;2.45;0.65;;;23.90;84.00;;;;;;5026085;28;20040;-70
2022/07/15 08:41:51;;;;;;;2.53;0.22;;;24.00;84.70;;;;;;5026654;28;20030;-68
2022/07/15 08:44:17;;;;;;;2.75;0.73;;;24.00;84.00;;;;;;5025963;28;20743;-69
2022/07/15 08:46:46;;;;;;;1.48;0.22;;;24.20;83.60;;;;;;5028753;28;20022;-69
2022/07/15 08:49:14;;;;;;;1.13;0.10;;;24.10;83.20;;;;;;5027015;28;20041;-70
2022/07/15 08:51:44;;;;;;;3.17;0.22;;;24.10;80.00;;;;;;5027140;28;20029;-66
2022/07/15 08:54:11;;;;;;;3.38;0.25;;;23.90;80.90;;;;;;5026765;28;20113;-67
2022/07/15 08:56:37;;;;;;;0.57;0.10;;;23.60;82.80;;;;;;5028155;28;20037;-70
2022/07/15 08:59:04;;;;;;;1.23;0.30;;;23.60;85.00;;;;;;5027554;28;20037;-69
2022/07/15 09:01:31;;;;;;;0.65;0.22;;;23.60;85.00;;;;;;5027763;28;20033;-70
2022/07/15 09:03:57;;;;;;;4.40;0.43;;;23.30;83.00;;;;;;5028772;28;20049;-67
2022/07/15 09:06:37;;;;;;;1.77;0.25;;;22.80;83.30;;;;;;5026869;28;20029;-69
2022/07/15 09:09:18;;;;;;;0.95;0.00;;;22.40;81.40;;;;;;5026932;28;20128;-69
2022/07/15 09:11:52;;;;;;;0.32;0.10;;;22.20;83.10;;;;;;5027154;28;20091;-67
2022/07/15 09:14:19;;;;;;;0.90;0.22;;;22.00;82.20;;;;;;5027556;28;20048;-69
2022/07/15 09:16:45;;;;;;;1.05;0.43;;;22.10;82.70;;;;;;5029033;28;20029;-66
2022/07/15 09:19:11;;;;;;;1.15;0.15;;;22.40;84.60;;;;;;5028315;28;20052;-67
2022/07/15 09:21:36;;;;;;;0.63;0.10;;;22.70;85.70;;;;;;5027099;28;20033;-70
2022/07/15 09:24:18;;;;;;;1.55;0.10;;;22.80;87.30;;;;;;5029446;28;20080;-69
2022/07/15 09:26:44;;;;;;;2.45;0.20;;;23.10;84.50;;;;;;5030132;28;20041;-66
2022/07/15 09:35:04;;;;;;;0.80;0.10;;;23.20;84.70;;;;;;5028087;28;20033;-67
2022/07/15 09:37:31;;;;;;;0.80;0.00;;;23.00;84.30;;;;;;5024895;28;20033;-67
2022/07/15 09:39:57;;;;;;;0.40;0.10;;;22.70;84.00;;;;;;5027664;28;20037;-66
2022/07/15 09:42:23;;;;;;;1.15;0.20;;;22.40;86.00;;;;;;5026828;28;20030;-69
2022/07/15 09:44:50;;;;;;;0.88;0.40;;;22.20;86.40;;;;;;5026455;28;20045;-69
2022/07/15 09:47:18;;;;;;;1.42;0.10;;;22.00;89.30;;;;;;5025887;28;20049;-68
2022/07/15 09:49:44;;;;;;;0.60;0.10;;;21.90;89.20;;;;;;5028263;28;20038;-66
2022/07/15 09:52:13;;;;;;;4.07;0.30;;;21.90;90.10;;;;;;5027719;28;20034;-70
2022/07/15 09:54:48;;;;;;;0.63;0.03;;;22.10;88.70;;;;;;5025120;28;20034;-70
2022/07/15 09:57:18;;;;;;;1.48;0.32;;;22.50;89.50;;;;;;5027938;28;20037;-66
2022/07/15 09:59:46;;;;;;;1.85;0.20;;;23.00;89.00;;;;;;5027913;28;20034;-68
2022/07/15 10:02:12;;;;;;;4.97;0.40;;;23.20;87.20;;;;;;5027362;28;20049;-70
2022/07/15 10:04:38;;;;;;;0.80;0.10;;;23.40;85.60;;;;;;5027560;28;20172;-70
2022/07/15 10:07:04;;;;;;;2.78;0.20;;;23.20;84.10;;;;;;5028361;28;20124;-70
2022/07/15 10:09:34;;;;;;;0.70;0.20;;;23.00;85.00;;;;;;5027214;28;20030;-66
2022/07/15 10:12:12;;;;;;;0.30;0.00;;;22.70;85.80;;;;;;5028201;28;20509;-66
2022/07/15 10:15:04;;;;;;;3.28;0.52;;;22.60;88.10;;;;;;5027368;28;20042;-69
2022/07/15 10:17:36;;;;;;;0.60;0.03;;;22.40;88.60;;;;;;5025096;28;20033;-67
2022/07/15 10:20:31;;;;;;;0.68;0.10;;;22.30;87.80;;;;;;5028477;28;20116;-67
2022/07/15 10:23:24;;;;;;;0.45;0.20;;;22.20;88.80;;;;;;5024654;28;20049;-69
2022/07/15 10:26:00;;;;;;;1.30;0.20;;;22.30;89.40;;;;;;5033863;28;20046;-70
2022/07/15 10:28:28;;;;;;;0.10;0.00;;;22.40;88.40;;;;;;5025814;28;20048;-68
2022/07/15 10:31:13;;;;;;;0.77;0.10;;;22.30;87.20;;;;;;5030862;28;20528;-66
2022/07/15 10:33:38;;;;;;;0.20;0.10;;;22.60;86.40;;;;;;5026793;28;20030;-68
2022/07/15 10:36:05;;;;;;;1.85;0.55;;;22.90;87.30;;;;;;5028262;28;20034;-70
2022/07/15 10:38:34;;;;;;;0.50;0.10;;;23.00;86.50;;;;;;5026926;28;20464;-66
2022/07/15 10:41:03;;;;;;;3.05;0.30;;;23.40;87.00;;;;;;5028082;28;20030;-67
2022/07/15 10:43:48;;;;;;;1.05;0.20;;;23.70;86.60;;;;;;5025031;28;20393;-70
2022/07/15 10:46:16;;;;;;;5.57;0.55;;;24.00;85.80;;;;;;5023568;28;20167;-69
2022/07/15 10:48:49;;;;;;;3.13;0.10;;;24.40;83.90;;;;;;5027424;28;20042;-70
2022/07/15 10:51:37;;;;;;;1.70;0.08;;;24.50;82.50;;;;;;5023265;28;20037;-67
2022/07/15 10:54:17;;;;;;;1.15;0.22;;;24.40;81.20;;;;;;5024025;28;20452;-67
2022/07/15 10:56:48;;;;;;;0.98;0.10;;;24.30;81.00;;;;;;5025310;28;20087;-70
2022/07/15 10:59:21;;;;;;;0.50;0.10;;;24.30;81.10;;;;;;5025650;28;20029;-70
2022/07/15 11:02:07;;;;;;;0.05;0.00;;;24.00;80.10;;;;;;5027477;28;20037;-67
2022/07/15 11:04:34;;;;;;;0.68;0.10;;;23.70;81.20;;;;;;5029247;28;20124;-66
2022/07/15 11:07:02;;;;;;;0.63;0.10;;;23.40;83.20;;;;;;5030270;28;20053;-70
2022/07/15 11:09:47;;;;;;;2.83;0.60;;;23.40;83.50;;;;;;5029780;28;20041;-70
2022/07/15 11:12:15;;;;;;;0.73;0.20;;;23.50;82.10;;;;;;5030334;28;20099;-70
2022/07/15 11:14:55;;;;;;;0.95;0.08;;;23.20;82.70;;;;;;5030291;28;20033;-70
2022/07/15 11:17:42;;;;;;;1.20;0.20;;;23.10;83.60;;;;;;5030100;28;20030;-70
2022/07/15 11:20:14;;;;;;;0.60;0.20;;;23.00;85.00;;;;;;5028233;28;20468;-70
2022/07/15 11:22:42;;;;;;;1.40;0.15;;;22.90;86.00;;;;;;5030148;28;20057;-70
2022/07/15 11:25:28;;;;;;;1.63;0.40;;;22.80;84.70;;;;;;5031720;28;20021;-71
2022/07/15 11:28:16;;;;;;;2.05;0.30;;;23.00;83.40;;;;;;5028147;28;20713;-71
2022/07/15 11:30:53;;;;;;;1.40;0.28;;;23.00;86.30;;;;;;5028867;28;20175;-68
2022/07/15 11:33:25;;;;;;;2.75;0.20;;;23.00;86.10;;;;;;5022138;28;20044;-70
2022/07/15 11:35:53;;;;;;;1.30;0.20;;;23.10;85.90;;;;;;5029737;28;20034;-70
2022/07/15 11:38:27;;;;;;;1.45;0.40;;;23.10;84.70;;;;;;5028269;28;20072;-70
2022/07/15 11:46:29;;;;;;;1.75;0.30;;;23.20;84.00;;;;;;5027287;28;20619;-70
2022/07/15 11:48:56;;;;;;;0.57;0.20;;;23.30;82.70;;;;;;5026488;28;20540;-68
2022/07/15 11:51:27;;;;;;;3.05;0.70;;;23.10;83.10;;;;;;5027519;28;20033;-69
2022/07/15 11:53:53;;;;;;;1.27;0.45;;;23.00;83.00;;;;;;5028790;28;20045;-70
2022/07/15 11:56:19;;;;;;;0.90;0.40;;;22.90;85.20;;;;;;5027190;28;20058;-68
2022/07/15 11:58:53;;;;;;;2.42;0.82;;;22.80;85.10;;;;;;5026212;28;20114;-70
2022/07/15 12:01:24;;;;;;;1.05;0.30;;;22.80;84.60;;;;;;5024866;28;20052;-69
2022/07/15 12:03:52;;;;;;;0.90;0.32;;;22.70;85.30;;;;;;5028421;28;20438;-67
2022/07/15 12:06:19;;;;;;;1.10;0.40;;;22.60;85.50;;;;;;5026540;28;20041;-67
2022/07/15 12:08:47;;;;;;;0.93;0.30;;;22.50;87.20;;;;;;5026562;28;20037;-70
2022/07/15 12:11:24;;;;;;;2.00;0.35;;;22.40;88.60;;;;;;5026900;28;20033;-67
2022/07/15 12:13:51;;;;;;;0.95;0.22;;;22.50;88.00;;;;;;5025094;28;20621;-69
2022/07/15 12:16:19;;;;;;;3.33;0.32;;;22.80;88.20;;;;;;5025206;28;20033;-70
2022/07/15 12:18:46;;;;;;;4.28;0.28;;;23.00;87.50;;;;;;5027468;28;20034;-70
2022/07/15 12:21:12;;;;;;;3.67;0.45;;;23.30;86.30;;;;;;5031116;28;20083;-70
2022/07/15 12:23:38;;;;;;;0.80;0.30;;;23.50;85.40;;;;;;5028870;28;20037;-69
2022/07/15 12:26:06;;;;;;;0.98;0.20;;;23.60;84.70;;;;;;5030761;28;20041;-67
2022/07/15 12:28:32;;;;;;;2.45;0.30;;;23.70;84.70;;;;;;5029084;28;20053;-69
2022/07/15 12:30:59;;;;;;;1.75;0.40;;;23.70;83.60;;;;;;5030438;28;20037;-70
2022/07/15 12:33:25;;;;;;;2.60;0.30;;;23.70;84.70;;;;;;5027126;28;20172;-70
2022/07/15 12:36:15;;;;;;;0.50;0.25;;;23.50;84.20;;;;;;5025795;28;20061;-70
2022/07/15 12:38:40;;;;;;;4.72;0.63;;;23.20;85.30;;;;;;5024539;28;20061;-70
2022/07/15 12:41:08;;;;;;;4.15;0.73;;;23.30;86.40;;;;;;5028636;28;20030;-70
2022/07/15 12:43:55;;;;;;;2.10;0.43;;;23.50;85.70;;;;;;5026957;28;20029;-67
2022/07/15 12:46:41;;;;;;;1.73;0.15;;;23.40;83.10;;;;;;5025265;28;20041;-69
2022/07/15 12:49:07;;;;;;;1.95;0.30;;;23.20;82.50;;;;;;5028131;28;20041;-70
2022/07/15 12:51:34;;;;;;;1.83;0.22;;;23.00;84.20;;;;;;5026023;28;20033;-70
2022/07/15 12:54:05;;;;;;;0.73;0.20;;;22.90;85.10;;;;;;5027840;28;20725;-68
2022/07/15 12:56:31;;;;;;;1.25;0.35;;;23.00;83.90;;;;;;5027754;28;20038;-70
2022/07/15 12:58:56;;;;;;;4.72;0.93;;;23.10;85.60;;;;;;5027710;28;20143;-69
2022/07/15 13:01:22;;;;;;;1.98;0.40;;;23.30;85.70;;;;;;5027354;28;20053;-69
2022/07/15 13:03:47;;;;;;;0.73;0.22;;;23.40;85.50;;;;;;5023025;28;20045;-69
2022/07/15 13:06:14;;;;;;;1.48;0.47;;;23.40;85.90;;;;;;5027257;28;20044;-70
2022/07/15 13:08:40;;;;;;;0.93;0.40;;;23.50;84.40;;;;;;5026568;28;20084;-67